sensor_id;sensor_type;location;lat;lon;timestamp;temperature;humidity
6810;DHT22;3443;48.812;9.112;2023-07-30T06:14:57;19.20;99.90
6810;DHT22;3443;48.812;9.112;2023-07-30T06:17:22;19.20;99.90
6810;DHT22;3443;48.812;9.112;2023-07-30T06:19:48;19.20;99.90
6810;DHT22;3443;48.812;9.112;2023-07-30T06:24:40;19.20;99.90
6810;DHT22;3443;48.812;9.112;2023-07-30T06:27:05;19.30;99.90
6810;DHT22;3443;48.812;9.112;2023-07-30T06:29:31;19.30;99.90
6810;DHT22;3443;48.812;9.112;2023-07-30T06:31:57;19.40;99.90
6810;DHT22;3443;48.812;9.112;2023-07-30T06:34:22;19.30;99.90
6810;DHT22;3443;48.812;9.112;2023-07-30T06:36:48;19.40;99.90
6810;DHT22;3443;48.812;9.112;2023-07-30T06:39:13;19.50;99.90
6810;DHT22;3443;48.812;9.112;2023-07-30T06:41:39;19.60;99.90
6810;DHT22;3443;48.812;9.112;2023-07-30T06:44:04;19.80;99.90
6810;DHT22;3443;48.812;9.112;2023-07-30T06:46:30;20.00;99.90
6810;DHT22;3443;48.812;9.112;2023-07-30T06:48:55;20.10;99.90
6810;DHT22;3443;48.812;9.112;2023-07-30T06:51:24;20.20;99.90
6810;DHT22;3443;48.812;9.112;2023-07-30T06:53:50;20.20;99.90
6810;DHT22;3443;48.812;9.112;2023-07-30T06:56:15;20.20;99.90
6810;DHT22;3443;48.812;9.112;2023-07-30T06:58:41;20.20;99.90
6810;DHT22;3443;48.812;9.112;2023-07-30T07:01:06;20.20;99.90
6810;DHT22;3443;48.812;9.112;2023-07-30T07:03:32;20.20;99.90
6810;DHT22;3443;48.812;9.112;2023-07-30T07:05:58;20.20;99.90
6810;DHT22;3443;48.812;9.112;2023-07-30T07:08:24;20.10;99.90
6810;DHT22;3443;48.812;9.112;2023-07-30T07:10:50;20.00;99.90
6810;DHT22;3443;48.812;9.112;2023-07-30T07:13:16;20.00;99.90
6810;DHT22;3443;48.812;9.112;2023-07-30T07:15:42;19.90;99.90
6810;DHT22;3443;48.812;9.112;2023-07-30T07:18:08;19.90;99.90
6810;DHT22;3443;48.812;9.112;2023-07-30T07:20:34;19.80;99.90
6810;DHT22;3443;48.812;9.112;2023-07-30T07:22:59;19.90;99.90
6810;DHT22;3443;48.812;9.112;2023-07-30T07:25:25;19.90;99.90
6810;DHT22;3443;48.812;9.112;2023-07-30T07:27:51;19.90;99.90
6810;DHT22;3443;48.812;9.112;2023-07-30T07:30:16;19.90;99.90
6810;DHT22;3443;48.812;9.112;2023-07-30T07:32:42;19.90;99.90
6810;DHT22;3443;48.812;9.112;2023-07-30T07:35:08;19.90;99.90
6810;DHT22;3443;48.812;9.112;2023-07-30T07:37:33;19.80;99.90
6810;DHT22;3443;48.812;9.112;2023-07-30T07:39:59;19.60;99.90
6810;DHT22;3443;48.812;9.112;2023-07-30T07:42:25;19.60;99.90
6810;DHT22;3443;48.812;9.112;2023-07-30T07:44:50;19.40;99.90
6810;DHT22;3443;48.812;9.112;2023-07-30T07:47:16;19.40;99.90
6810;DHT22;3443;48.812;9.112;2023-07-30T07:49:41;19.40;99.90
6810;DHT22;3443;48.812;9.112;2023-07-30T07:52:07;19.40;99.90
6810;DHT22;3443;48.812;9.112;2023-07-30T07:54:34;19.30;99.90
6810;DHT22;3443;48.812;9.112;2023-07-30T07:57:00;19.30;99.90
6810;DHT22;3443;48.812;9.112;2023-07-30T07:59:25;19.60;99.90
6810;DHT22;3443;48.812;9.112;2023-07-30T08:01:53;19.80;99.90
6810;DHT22;3443;48.812;9.112;2023-07-30T08:04:18;20.00;99.90
6810;DHT22;3443;48.812;9.112;2023-07-30T08:06:46;20.10;99.90
6810;DHT22;3443;48.812;9.112;2023-07-30T08:09:12;20.10;99.90
6810;DHT22;3443;48.812;9.112;2023-07-30T08:11:37;20.20;99.90
6810;DHT22;3443;48.812;9.112;2023-07-30T08:14:03;20.30;99.90
6810;DHT22;3443;48.812;9.112;2023-07-30T08:16:28;20.40;99.90
6810;DHT22;3443;48.812;9.112;2023-07-30T08:18:54;20.50;99.90
6810;DHT22;3443;48.812;9.112;2023-07-30T08:23:46;20.60;99.90
6810;DHT22;3443;48.812;9.112;2023-07-30T08:26:12;20.60;99.90
6810;DHT22;3443;48.812;9.112;2023-07-30T08:28:38;20.80;99.90
6810;DHT22;3443;48.812;9.112;2023-07-30T08:35:58;21.40;99.90
6810;DHT22;3443;48.812;9.112;2023-07-30T08:38:24;21.40;99.90
6810;DHT22;3443;48.812;9.112;2023-07-30T08:40:50;21.30;99.90
6810;DHT22;3443;48.812;9.112;2023-07-30T08:43:17;21.20;99.90
6810;DHT22;3443;48.812;9.112;2023-07-30T08:45:43;21.40;99.90
6810;DHT22;3443;48.812;9.112;2023-07-30T08:48:08;21.60;99.90
6810;DHT22;3443;48.812;9.112;2023-07-30T08:50:35;21.60;99.90
6810;DHT22;3443;48.812;9.112;2023-07-30T09:32:31;21.40;99.90
6810;DHT22;3443;48.812;9.112;2023-07-30T09:35:08;21.50;99.90
6810;DHT22;3443;48.812;9.112;2023-07-30T09:37:41;21.50;99.90
6810;DHT22;3443;48.812;9.112;2023-07-30T09:40:08;21.30;99.90
6810;DHT22;3443;48.812;9.112;2023-07-30T09:42:35;21.20;99.90
6810;DHT22;3443;48.812;9.112;2023-07-30T09:45:05;21.30;99.90
6810;DHT22;3443;48.812;9.112;2023-07-30T09:47:32;21.30;99.90
6810;DHT22;3443;48.812;9.112;2023-07-30T09:50:01;21.20;99.90
6810;DHT22;3443;48.812;9.112;2023-07-30T09:52:28;21.10;99.90
6810;DHT22;3443;48.812;9.112;2023-07-30T09:54:55;21.10;99.90
6810;DHT22;3443;48.812;9.112;2023-07-30T09:57:22;21.10;99.90
6810;DHT22;3443;48.812;9.112;2023-07-30T09:59:48;21.20;99.90
6810;DHT22;3443;48.812;9.112;2023-07-30T10:02:13;21.30;99.90
6810;DHT22;3443;48.812;9.112;2023-07-30T10:04:42;21.30;99.90
6810;DHT22;3443;48.812;9.112;2023-07-30T10:07:14;21.50;99.90
6810;DHT22;3443;48.812;9.112;2023-07-30T10:09:44;21.50;99.90
6810;DHT22;3443;48.812;9.112;2023-07-30T10:12:16;21.60;99.90
6810;DHT22;3443;48.812;9.112;2023-07-30T10:14:43;22.00;99.90
6810;DHT22;3443;48.812;9.112;2023-07-30T10:19:38;22.40;99.90
6810;DHT22;3443;48.812;9.112;2023-07-30T10:27:09;22.60;99.90
6810;DHT22;3443;48.812;9.112;2023-07-30T10:29:40;22.70;99.90
6810;DHT22;3443;48.812;9.112;2023-07-30T10:32:07;22.70;99.90
6810;DHT22;3443;48.812;9.112;2023-07-30T10:34:46;22.60;99.90
6810;DHT22;3443;48.812;9.112;2023-07-30T10:37:20;22.60;99.90
6810;DHT22;3443;48.812;9.112;2023-07-30T10:42:15;23.10;99.90
6810;DHT22;3443;48.812;9.112;2023-07-30T10:44:44;23.10;99.90
6810;DHT22;3443;48.812;9.112;2023-07-30T10:47:10;23.00;99.90
6810;DHT22;3443;48.812;9.112;2023-07-30T10:49:37;23.10;99.90
6810;DHT22;3443;48.812;9.112;2023-07-30T10:52:03;23.00;99.90
6810;DHT22;3443;48.812;9.112;2023-07-30T10:54:36;23.10;99.90
6810;DHT22;3443;48.812;9.112;2023-07-30T10:57:05;23.20;99.90
6810;DHT22;3443;48.812;9.112;2023-07-30T10:59:38;23.40;99.90
6810;DHT22;3443;48.812;9.112;2023-07-30T11:02:04;23.40;99.90
6810;DHT22;3443;48.812;9.112;2023-07-30T11:04:34;23.60;99.90
6810;DHT22;3443;48.812;9.112;2023-07-30T11:06:59;23.60;99.90
6810;DHT22;3443;48.812;9.112;2023-07-30T11:09:26;23.50;99.90
6810;DHT22;3443;48.812;9.112;2023-07-30T11:11:54;23.40;99.90
6810;DHT22;3443;48.812;9.112;2023-07-30T11:14:22;23.20;99.90
6810;DHT22;3443;48.812;9.112;2023-07-30T11:19:17;22.60;99.90
6810;DHT22;3443;48.812;9.112;2023-07-30T11:21:51;22.40;99.90
6810;DHT22;3443;48.812;9.112;2023-07-30T11:24:17;22.30;99.90
6810;DHT22;3443;48.812;9.112;2023-07-30T11:26:44;22.10;99.90
6810;DHT22;3443;48.812;9.112;2023-07-30T11:29:15;21.90;99.90
6810;DHT22;3443;48.812;9.112;2023-07-30T11:31:43;21.90;99.90
6810;DHT22;3443;48.812;9.112;2023-07-30T11:34:09;22.10;99.90
6810;DHT22;3443;48.812;9.112;2023-07-30T11:36:35;22.30;99.90
6810;DHT22;3443;48.812;9.112;2023-07-30T11:39:00;22.50;99.90
6810;DHT22;3443;48.812;9.112;2023-07-30T11:41:26;22.60;99.90
6810;DHT22;3443;48.812;9.112;2023-07-30T11:43:53;22.60;99.90
6810;DHT22;3443;48.812;9.112;2023-07-30T11:46:19;22.60;99.90
6810;DHT22;3443;48.812;9.112;2023-07-30T11:48:50;22.50;99.90
6810;DHT22;3443;48.812;9.112;2023-07-30T11:51:27;22.60;99.90
6810;DHT22;3443;48.812;9.112;2023-07-30T11:53:58;22.70;99.90
6810;DHT22;3443;48.812;9.112;2023-07-30T11:58:57;22.90;99.90
6810;DHT22;3443;48.812;9.112;2023-07-30T12:01:24;22.90;99.90
6810;DHT22;3443;48.812;9.112;2023-07-30T12:03:53;22.90;99.90
6810;DHT22;3443;48.812;9.112;2023-07-30T12:06:19;22.90;99.90
6810;DHT22;3443;48.812;9.112;2023-07-30T12:08:44;23.00;99.90
6810;DHT22;3443;48.812;9.112;2023-07-30T12:11:10;23.20;99.90
6810;DHT22;3443;48.812;9.112;2023-07-30T12:13:44;23.30;99.90
6810;DHT22;3443;48.812;9.112;2023-07-30T12:16:15;23.50;99.90
6810;DHT22;3443;48.812;9.112;2023-07-30T12:18:41;23.60;99.90
6810;DHT22;3443;48.812;9.112;2023-07-30T12:21:07;23.90;99.90
6810;DHT22;3443;48.812;9.112;2023-07-30T12:23:37;24.00;99.90
6810;DHT22;3443;48.812;9.112;2023-07-30T12:26:03;24.00;99.90
6810;DHT22;3443;48.812;9.112;2023-07-30T12:28:34;24.30;99.90
6810;DHT22;3443;48.812;9.112;2023-07-30T12:31:00;24.40;99.90
6810;DHT22;3443;48.812;9.112;2023-07-30T12:33:26;24.30;99.90
6810;DHT22;3443;48.812;9.112;2023-07-30T12:35:51;24.00;99.90
6810;DHT22;3443;48.812;9.112;2023-07-30T12:38:18;23.50;99.90
6810;DHT22;3443;48.812;9.112;2023-07-30T12:40:44;23.10;99.90
6810;DHT22;3443;48.812;9.112;2023-07-30T12:43:09;22.80;99.90
6810;DHT22;3443;48.812;9.112;2023-07-30T12:45:35;22.80;99.90
6810;DHT22;3443;48.812;9.112;2023-07-30T12:48:01;22.90;99.90
6810;DHT22;3443;48.812;9.112;2023-07-30T12:50:26;22.90;99.90
6810;DHT22;3443;48.812;9.112;2023-07-30T12:52:52;23.00;99.90
6810;DHT22;3443;48.812;9.112;2023-07-30T12:55:18;22.90;99.90
6810;DHT22;3443;48.812;9.112;2023-07-30T12:57:43;22.90;99.90
6810;DHT22;3443;48.812;9.112;2023-07-30T13:00:09;23.20;99.90
6810;DHT22;3443;48.812;9.112;2023-07-30T13:02:35;23.40;99.90
6810;DHT22;3443;48.812;9.112;2023-07-30T13:05:01;23.70;99.90
6810;DHT22;3443;48.812;9.112;2023-07-30T13:07:27;23.90;99.90
6810;DHT22;3443;48.812;9.112;2023-07-30T13:10:08;24.00;99.90
6810;DHT22;3443;48.812;9.112;2023-07-30T13:12:35;24.30;99.90
6810;DHT22;3443;48.812;9.112;2023-07-30T13:15:01;24.50;99.90
6810;DHT22;3443;48.812;9.112;2023-07-30T13:17:28;24.60;99.90
6810;DHT22;3443;48.812;9.112;2023-07-30T13:19:53;24.50;99.90
6810;DHT22;3443;48.812;9.112;2023-07-30T13:22:19;24.80;99.90
6810;DHT22;3443;48.812;9.112;2023-07-30T13:24:45;24.90;99.90
6810;DHT22;3443;48.812;9.112;2023-07-30T13:27:10;24.70;99.90
6810;DHT22;3443;48.812;9.112;2023-07-30T13:29:36;24.70;99.90
6810;DHT22;3443;48.812;9.112;2023-07-30T13:32:01;24.70;99.90
6810;DHT22;3443;48.812;9.112;2023-07-30T13:34:27;24.50;99.90
6810;DHT22;3443;48.812;9.112;2023-07-30T13:36:52;24.50;99.90
6810;DHT22;3443;48.812;9.112;2023-07-30T13:39:18;24.40;99.90
6810;DHT22;3443;48.812;9.112;2023-07-30T13:41:44;24.50;99.90
6810;DHT22;3443;48.812;9.112;2023-07-30T13:44:10;24.60;99.90
6810;DHT22;3443;48.812;9.112;2023-07-30T13:46:37;24.70;99.90
6810;DHT22;3443;48.812;9.112;2023-07-30T13:49:02;24.60;99.90
6810;DHT22;3443;48.812;9.112;2023-07-30T13:51:28;24.50;99.90
6810;DHT22;3443;48.812;9.112;2023-07-30T13:53:58;24.50;99.90
6810;DHT22;3443;48.812;9.112;2023-07-30T13:56:24;24.30;99.90
6810;DHT22;3443;48.812;9.112;2023-07-30T13:58:50;24.00;99.90
6810;DHT22;3443;48.812;9.112;2023-07-30T14:01:15;23.70;99.90
6810;DHT22;3443;48.812;9.112;2023-07-30T14:03:41;23.40;99.90
6810;DHT22;3443;48.812;9.112;2023-07-30T14:06:06;23.40;99.90
6810;DHT22;3443;48.812;9.112;2023-07-30T14:08:32;23.40;99.90
6810;DHT22;3443;48.812;9.112;2023-07-30T14:10:57;23.40;99.90
6810;DHT22;3443;48.812;9.112;2023-07-30T14:13:24;23.30;99.90
6810;DHT22;3443;48.812;9.112;2023-07-30T14:15:49;23.20;99.90
6810;DHT22;3443;48.812;9.112;2023-07-30T14:18:15;23.40;99.90
6810;DHT22;3443;48.812;9.112;2023-07-30T14:20:41;23.80;99.90
6810;DHT22;3443;48.812;9.112;2023-07-30T14:23:07;23.80;99.90
6810;DHT22;3443;48.812;9.112;2023-07-30T14:25:32;23.90;99.90
6810;DHT22;3443;48.812;9.112;2023-07-30T14:27:58;23.90;99.90
6810;DHT22;3443;48.812;9.112;2023-07-30T14:30:23;23.90;99.90
6810;DHT22;3443;48.812;9.112;2023-07-30T14:32:49;23.80;99.90
6810;DHT22;3443;48.812;9.112;2023-07-30T14:35:15;23.70;99.90
6810;DHT22;3443;48.812;9.112;2023-07-30T14:37:41;23.70;99.90
6810;DHT22;3443;48.812;9.112;2023-07-30T14:40:06;23.90;99.90
6810;DHT22;3443;48.812;9.112;2023-07-30T14:42:32;23.90;99.90
6810;DHT22;3443;48.812;9.112;2023-07-30T14:44:58;23.80;99.90
6810;DHT22;3443;48.812;9.112;2023-07-30T14:49:49;23.20;99.90
6810;DHT22;3443;48.812;9.112;2023-07-30T14:57:10;23.20;99.90
6810;DHT22;3443;48.812;9.112;2023-07-30T14:59:35;23.20;99.90
6810;DHT22;3443;48.812;9.112;2023-07-30T15:02:01;22.90;99.90
6810;DHT22;3443;48.812;9.112;2023-07-30T15:04:26;23.00;99.90
6810;DHT22;3443;48.812;9.112;2023-07-30T15:06:52;23.10;99.90
6810;DHT22;3443;48.812;9.112;2023-07-30T15:09:18;23.20;99.90
6810;DHT22;3443;48.812;9.112;2023-07-30T15:11:43;23.30;99.90
6810;DHT22;3443;48.812;9.112;2023-07-30T15:14:09;23.40;99.90
6810;DHT22;3443;48.812;9.112;2023-07-30T15:16:34;23.30;99.90
6810;DHT22;3443;48.812;9.112;2023-07-30T15:19:00;23.20;99.90
6810;DHT22;3443;48.812;9.112;2023-07-30T15:23:51;23.20;99.90
6810;DHT22;3443;48.812;9.112;2023-07-30T15:26:17;23.20;99.90
6810;DHT22;3443;48.812;9.112;2023-07-30T15:28:42;23.20;99.90
6810;DHT22;3443;48.812;9.112;2023-07-30T15:31:08;23.20;99.90
6810;DHT22;3443;48.812;9.112;2023-07-30T15:33:34;23.10;99.90
6810;DHT22;3443;48.812;9.112;2023-07-30T15:36:00;23.10;99.90
6810;DHT22;3443;48.812;9.112;2023-07-30T15:38:25;23.00;99.90
6810;DHT22;3443;48.812;9.112;2023-07-30T15:43:17;22.80;99.90
6810;DHT22;3443;48.812;9.112;2023-07-30T15:45:42;22.90;99.90
6810;DHT22;3443;48.812;9.112;2023-07-30T15:48:09;23.00;99.90
6810;DHT22;3443;48.812;9.112;2023-07-30T15:50:35;23.00;99.90
6810;DHT22;3443;48.812;9.112;2023-07-30T15:53:00;22.90;99.90
6810;DHT22;3443;48.812;9.112;2023-07-30T15:57:52;22.70;99.90
6810;DHT22;3443;48.812;9.112;2023-07-30T16:05:11;22.50;99.90
6810;DHT22;3443;48.812;9.112;2023-07-30T16:07:37;22.50;99.90
6810;DHT22;3443;48.812;9.112;2023-07-30T16:10:04;22.50;99.90
6810;DHT22;3443;48.812;9.112;2023-07-30T16:12:30;22.50;99.90
6810;DHT22;3443;48.812;9.112;2023-07-30T16:14:56;22.50;99.90
6810;DHT22;3443;48.812;9.112;2023-07-30T16:17:22;22.50;99.90
6810;DHT22;3443;48.812;9.112;2023-07-30T16:19:47;22.40;99.90
6810;DHT22;3443;48.812;9.112;2023-07-30T16:22:13;22.40;99.90
6810;DHT22;3443;48.812;9.112;2023-07-30T16:24:39;22.50;99.90
6810;DHT22;3443;48.812;9.112;2023-07-30T16:27:04;22.50;99.90
6810;DHT22;3443;48.812;9.112;2023-07-30T16:29:30;22.30;99.90
6810;DHT22;3443;48.812;9.112;2023-07-30T16:31:55;22.20;99.90
6810;DHT22;3443;48.812;9.112;2023-07-30T16:34:21;22.20;99.90
6810;DHT22;3443;48.812;9.112;2023-07-30T16:36:46;22.20;99.90
6810;DHT22;3443;48.812;9.112;2023-07-30T16:41:40;22.10;99.90
6810;DHT22;3443;48.812;9.112;2023-07-30T16:44:05;21.90;99.90
6810;DHT22;3443;48.812;9.112;2023-07-30T16:46:31;21.90;99.90
6810;DHT22;3443;48.812;9.112;2023-07-30T16:48:57;21.80;99.90
6810;DHT22;3443;48.812;9.112;2023-07-30T16:51:22;21.70;99.90
6810;DHT22;3443;48.812;9.112;2023-07-30T16:53:48;21.70;99.90
6810;DHT22;3443;48.812;9.112;2023-07-30T16:56:14;21.70;99.90
6810;DHT22;3443;48.812;9.112;2023-07-30T16:58:40;21.70;99.90
6810;DHT22;3443;48.812;9.112;2023-07-30T17:01:07;21.60;99.90
6810;DHT22;3443;48.812;9.112;2023-07-30T17:03:35;21.60;99.90
6810;DHT22;3443;48.812;9.112;2023-07-30T17:08:27;21.40;99.90
6810;DHT22;3443;48.812;9.112;2023-07-30T17:10:53;21.40;99.90
6810;DHT22;3443;48.812;9.112;2023-07-30T17:13:19;21.40;99.90
6810;DHT22;3443;48.812;9.112;2023-07-30T17:18:10;21.50;99.90
6810;DHT22;3443;48.812;9.112;2023-07-30T17:20:36;21.50;99.90
6810;DHT22;3443;48.812;9.112;2023-07-30T17:23:01;21.60;99.90
6810;DHT22;3443;48.812;9.112;2023-07-30T17:25:27;21.70;99.90
6810;DHT22;3443;48.812;9.112;2023-07-30T17:27:52;21.60;99.90
6810;DHT22;3443;48.812;9.112;2023-07-30T17:30:18;21.60;99.90
6810;DHT22;3443;48.812;9.112;2023-07-30T17:32:43;21.60;99.90
6810;DHT22;3443;48.812;9.112;2023-07-30T17:35:09;21.50;99.90
6810;DHT22;3443;48.812;9.112;2023-07-30T17:37:34;21.50;99.90
6810;DHT22;3443;48.812;9.112;2023-07-30T17:40:00;21.50;99.90
6810;DHT22;3443;48.812;9.112;2023-07-30T17:42:26;21.50;99.90
6810;DHT22;3443;48.812;9.112;2023-07-30T17:44:51;21.50;99.90
